• Join FlightAware (Why Join?)
  • Login
  • US Flag 
09:12PM EDT


 

Airport Tracker/Info


-or-


 

Live Flight TrackerFlight Track Log ✈ FD478 ✈ 16-May-2013 ✈ YKRY / KGY - YBBN / BNE

Flight Track Log - Related Links

Times and Time Zones

All times are in EDT time to prevent confusion due to time zone crossing. See the FD478 flight status page for this flight to view local times or setup timezone preferences in your user account.

Time Position Orientation Groundspeed Altitude Reporting Facility
EDT Latitude Longitude Course Direction KTS MPH feet Rate Location/Type
05:40AM -26.5429 151.8268 347° North 128 147 3,100  Level Aus ATC (RADAR)
05:40AM -26.5244 151.8220 347° North 152 175 3,700 1,380 Climbing Aus ATC (RADAR)
05:41AM -26.5154 151.8003 295° West 146 168 4,500 1,500 Climbing Aus ATC (RADAR)
05:42AM -26.5442 151.8206 148° Southeast 195 224 6,400 1,620 Climbing Aus ATC (RADAR)
05:43AM -26.5553 151.8381 125° Southeast 180 207 7,100 1,380 Climbing Aus ATC (RADAR)
05:43AM -26.5723 151.8552 138° Southeast 167 192 7,700 1,320 Climbing Aus ATC (RADAR)
05:44AM -26.5878 151.8940 114° Southeast 181 208 8,800 1,320 Climbing Aus ATC (RADAR)
05:44AM -26.5942 151.9290 102° East 196 226 9,500 1,080 Climbing Aus ATC (RADAR)
05:45AM -26.6036 151.9792 102° East 219 252 10,300 1,200 Climbing Aus ATC (RADAR)
05:46AM -26.6091 152.0089 102° East 229 264 10,900 1,380 Climbing Aus ATC (RADAR)
05:47AM -26.6291 152.1185 102° East 243 280 13,000 1,140 Climbing Aus ATC (RADAR)
05:47AM -26.6355 152.1514 102° East 254 292 13,100  Climbing Aus ATC (RADAR)
05:48AM -26.6440 152.2017 101° East 275 316 13,000 -120 Descending Aus ATC (RADAR)
05:49AM -26.6575 152.2736 102° East 283 326 13,000  Level Aus ATC (RADAR)
05:49AM -26.6670 152.3254 102° East 288 331 13,000  Level Aus ATC (RADAR)
05:50AM -26.6788 152.3932 101° East 294 338 13,000  Level Aus ATC (RADAR)
05:51AM -26.6853 152.4311 101° East 294 338 13,000  Level Aus ATC (RADAR)
05:51AM -26.6949 152.4829 102° East 289 333 13,000  Level Aus ATC (RADAR)
05:52AM -26.7122 152.5805 101° East 290 334 13,000  Level Aus ATC (RADAR)
05:53AM -26.7188 152.6169 101° East 286 329 13,000  Level Aus ATC (RADAR)
05:53AM -26.7276 152.6682 101° East 283 326 13,000  Level Aus ATC (RADAR)
05:54AM -26.7394 152.7311 102° East 269 310 13,000  Level Aus ATC (RADAR)
05:55AM -26.7480 152.7807 101° East 274 315 13,000  Level Aus ATC (RADAR)
05:55AM -26.7715 152.8385 114° Southeast 283 326 13,000 -180 Level Aus ATC (RADAR)
05:56AM -26.7993 152.8476 164° South 254 292 12,800 -1,440 Descending Aus ATC (RADAR)
05:56AM -26.8405 152.8679 156° South 273 314 11,600 -1,740 Descending Aus ATC (RADAR)
05:57AM -26.9113 152.9044 155° Southeast 273 314 10,100 -1,500 Descending Aus ATC (RADAR)
05:58AM -26.9393 152.9185 156° South 264 304 9,500 -1,440 Descending Aus ATC (RADAR)
05:58AM -26.9751 152.9374 155° Southeast 242 278 8,700 -1,320 Descending Aus ATC (RADAR)
05:59AM -27.0146 152.9575 156° South 232 267 7,900 -1,260 Descending Aus ATC (RADAR)
06:00AM -27.0484 152.9722 159° South 221 254 7,100 -1,620 Descending Aus ATC (RADAR)
06:00AM -27.0914 152.9900 160° South 217 250 5,800 -1,680 Descending Aus ATC (RADAR)
06:01AM -27.1153 152.9997 160° South 216 249 5,200 -1,320 Descending Aus ATC (RADAR)
06:01AM -27.1475 153.0124 161° South 205 236 4,500 -720 Descending Aus ATC (RADAR)
06:02AM -27.1610 153.0180 161° South 194 223 4,500 -900 Level FlightAware
06:02AM -27.1868 153.0300 161° South 159 183 3,700 -1,320 Descending Aus ATC (RADAR)
06:03AM -27.2063 153.0370 162° South 171 197 3,300 -900 Descending Aus ATC (RADAR)
06:03AM -27.2329 153.0481 160° South 172 198 2,800 -900 Descending Aus ATC (RADAR)
06:04AM -27.2658 153.0619 160° South 165 190 2,100 -1,020 Descending Aus ATC (RADAR)
06:05AM -27.2906 153.0733 158° South 162 186 1,500 -960 Descending Aus ATC (RADAR)
06:05AM -27.3124 153.0921 142° Southeast 163 188 1,000 -720 Descending Aus ATC (RADAR)
06:06AM -27.3325 153.1073 146° Southeast 148 170 700 -720 Descending Aus ATC (RADAR)
06:06AM -27.3493 153.1198 147° Southeast 124 143 200 -900 Descending Aus ATC (RADAR)
06:09AM -27.3670 153.1280 147° Southeast 19 22 -120 Descending FlightAware
06:10AM -27.3730 153.1230 151° Southeast 9 10  Level FlightAware
06:11AM -27.3660 153.1393 151° Southeast  Level FlightAware Approximate